createdAt,value
2022-10-17T00:01:11.563Z,102681.02
2022-10-17T00:03:40.654Z,102680.50
2022-10-17T00:06:11.394Z,102684.20
2022-10-17T00:08:41.196Z,102683.55
2022-10-17T00:11:14.539Z,102682.01
2022-10-17T00:13:42.963Z,102679.53
2022-10-17T00:16:11.243Z,102680.66
2022-10-17T00:18:39.528Z,102682.98
2022-10-17T00:21:15.968Z,102685.11
2022-10-17T00:23:44.192Z,102684.58
2022-10-17T00:26:12.386Z,102682.73
2022-10-17T00:28:40.916Z,102677.61
2022-10-17T00:31:09.178Z,102674.38
2022-10-17T00:33:37.458Z,102671.04
2022-10-17T00:36:14.958Z,102668.83
2022-10-17T00:38:45.221Z,102667.40
2022-10-17T00:41:17.339Z,102667.02
2022-10-17T00:44:01.857Z,102666.40
2022-10-17T00:46:39.783Z,102669.37
2022-10-17T00:49:12.759Z,102672.32
2022-10-17T00:51:47.809Z,102669.52
2022-10-17T00:54:18.046Z,102671.42
2022-10-17T00:56:47.522Z,102673.01
2022-10-17T00:59:17.198Z,102674.52
2022-10-17T01:01:52.230Z,102674.92
2022-10-17T01:04:20.643Z,102677.63
2022-10-17T01:06:48.813Z,102677.69
2022-10-17T01:09:17.043Z,102678.32
2022-10-17T01:11:56.336Z,102680.79
2022-10-17T01:14:51.942Z,102681.23
2022-10-17T01:17:53.511Z,102680.77
2022-10-17T01:20:52.717Z,102678.53
2022-10-17T01:23:26.779Z,102677.39
2022-10-17T01:26:06.494Z,102675.13
2022-10-17T01:28:40.657Z,102673.36
2022-10-17T01:31:16.418Z,102674.14
2022-10-17T01:33:44.590Z,102672.65
2022-10-17T01:36:39.998Z,102672.58
2022-10-17T01:39:17.835Z,102675.19
2022-10-17T01:42:07.733Z,102674.39
2022-10-17T01:44:56.747Z,102675.58
2022-10-17T01:47:35.219Z,102674.20
2022-10-17T01:50:27.524Z,102672.27
2022-10-17T01:52:59.914Z,102673.77
2022-10-17T01:55:34.289Z,102676.80
2022-10-17T01:58:30.283Z,102677.42
2022-10-17T02:01:02.110Z,102673.45
2022-10-17T02:03:32.562Z,102675.05
2022-10-17T02:06:01.088Z,102680.26
2022-10-17T02:08:41.001Z,102682.40
2022-10-17T02:11:16.439Z,102684.39
2022-10-17T02:14:06.208Z,102688.94
2022-10-17T02:16:47.592Z,102690.48
2022-10-17T02:19:25.205Z,102688.71
2022-10-17T02:22:11.480Z,102693.37
2022-10-17T02:24:47.794Z,102693.08
2022-10-17T02:27:24.547Z,102700.19
2022-10-17T02:30:11.338Z,102704.80
2022-10-17T02:32:46.608Z,102708.02
2022-10-17T02:35:18.475Z,102707.79
2022-10-17T02:37:48.434Z,102706.81
2022-10-17T02:40:18.806Z,102708.08
2022-10-17T02:42:47.163Z,102709.05
2022-10-17T02:45:16.272Z,102713.69
2022-10-17T02:47:51.447Z,102716.71
2022-10-17T02:50:23.451Z,102717.27
2022-10-17T02:52:57.172Z,102715.36
2022-10-17T02:55:31.984Z,102715.73
2022-10-17T02:58:04.569Z,102719.44
2022-10-17T03:00:33.386Z,102716.52
2022-10-17T03:03:01.672Z,102717.81
2022-10-17T03:05:30.175Z,102718.20
2022-10-17T03:07:58.426Z,102718.56
2022-10-17T03:10:26.627Z,102718.08
2022-10-17T03:12:54.812Z,102717.58
2022-10-17T03:15:22.899Z,102718.69
2022-10-17T03:17:51.198Z,102718.05
2022-10-17T03:20:19.396Z,102718.94
2022-10-17T03:22:47.563Z,102722.75
2022-10-17T03:25:15.790Z,102721.30
2022-10-17T03:27:43.932Z,102728.49
2022-10-17T03:30:12.253Z,102732.70
2022-10-17T03:32:40.389Z,102734.83
2022-10-17T03:35:14.002Z,102736.14
2022-10-17T03:37:43.305Z,102738.52
2022-10-17T03:40:11.800Z,102741.52
2022-10-17T03:42:40.677Z,102746.94
2022-10-17T03:45:09.405Z,102752.96
2022-10-17T03:47:37.829Z,102749.23
2022-10-17T03:50:06.576Z,102746.24
2022-10-17T03:52:34.778Z,102746.15
2022-10-17T03:55:03.062Z,102748.71
2022-10-17T03:57:31.407Z,102748.09
2022-10-17T03:59:59.974Z,102751.15
2022-10-17T04:02:28.096Z,102750.14
2022-10-17T04:04:56.388Z,102753.02
2022-10-17T04:09:52.886Z,102761.90
2022-10-17T04:12:21.067Z,102759.80
2022-10-17T04:14:49.357Z,102759.61
2022-10-17T04:17:17.583Z,102757.05
2022-10-17T04:19:45.880Z,102758.63
2022-10-17T04:22:14.151Z,102762.17
2022-10-17T04:24:42.329Z,102762.57
2022-10-17T04:27:10.732Z,102763.60
2022-10-17T04:29:39.015Z,102760.71
2022-10-17T04:32:08.003Z,102765.80
2022-10-17T04:34:36.221Z,102769.35
2022-10-17T04:37:04.365Z,102772.07
2022-10-17T04:39:32.681Z,102771.77
2022-10-17T04:42:00.901Z,102775.59
2022-10-17T04:44:31.147Z,102777.46
2022-10-17T04:46:59.426Z,102777.80
2022-10-17T04:49:27.823Z,102781.77
2022-10-17T04:51:55.921Z,102784.13
2022-10-17T04:54:24.159Z,102781.81
2022-10-17T04:56:52.224Z,102783.55
2022-10-17T04:59:20.357Z,102785.81
2022-10-17T05:01:49.890Z,102790.47
2022-10-17T05:04:21.106Z,102792.42
2022-10-17T05:06:52.239Z,102794.30
2022-10-17T05:09:20.385Z,102794.73
2022-10-17T05:11:48.532Z,102797.36
2022-10-17T05:14:16.801Z,102798.20
2022-10-17T05:16:45.220Z,102800.21
2022-10-17T05:19:13.606Z,102805.14
2022-10-17T05:21:41.792Z,102809.45
2022-10-17T05:24:12.209Z,102813.83
2022-10-17T05:26:40.495Z,102817.95
2022-10-17T05:29:08.839Z,102826.85
2022-10-17T05:31:38.069Z,102834.23
2022-10-17T05:34:09.014Z,102837.37
2022-10-17T05:36:39.780Z,102840.26
2022-10-17T05:39:09.026Z,102842.95
2022-10-17T05:41:37.217Z,102849.56
2022-10-17T05:44:05.851Z,102857.56
2022-10-17T05:46:34.198Z,102861.11
2022-10-17T05:49:10.606Z,102863.96
2022-10-17T05:51:48.261Z,102867.27
2022-10-17T05:54:16.591Z,102868.75
2022-10-17T05:56:44.757Z,102869.30
2022-10-17T05:59:12.967Z,102872.85
2022-10-17T06:01:41.150Z,102870.67
2022-10-17T06:04:09.329Z,102874.56
2022-10-17T06:06:38.485Z,102877.20
2022-10-17T06:09:08.102Z,102880.98
2022-10-17T06:11:36.498Z,102882.36
2022-10-17T06:14:05.409Z,102883.20
2022-10-17T06:16:33.774Z,102887.98
2022-10-17T06:19:01.992Z,102889.34
2022-10-17T06:21:30.429Z,102894.85
2022-10-17T06:23:58.686Z,102898.63
2022-10-17T06:26:26.902Z,102897.95
2022-10-17T06:28:55.726Z,102900.50
2022-10-17T06:31:24.023Z,102906.57
2022-10-17T06:33:52.257Z,102904.69
2022-10-17T06:36:20.499Z,102904.84
2022-10-17T06:38:48.693Z,102909.10
2022-10-17T06:41:19.507Z,102913.64
2022-10-17T06:43:48.263Z,102918.94
2022-10-17T06:46:17.939Z,102924.05
2022-10-17T06:48:46.544Z,102926.03
2022-10-17T06:51:14.794Z,102926.56
2022-10-17T06:53:43.080Z,102927.96
2022-10-17T06:56:11.250Z,102929.35
2022-10-17T06:58:41.481Z,102928.91
2022-10-17T07:01:11.978Z,102926.89
2022-10-17T07:03:41.213Z,102926.67
2022-10-17T07:06:13.314Z,102924.83
2022-10-17T07:08:45.464Z,102924.70
2022-10-17T07:11:16.164Z,102928.66
2022-10-17T07:13:44.699Z,102929.43
2022-10-17T07:16:14.240Z,102924.70
2022-10-17T07:18:42.786Z,102933.70
2022-10-17T07:21:11.091Z,102933.16
2022-10-17T07:23:40.087Z,102932.74
2022-10-17T07:26:11.025Z,102933.49
2022-10-17T07:28:41.278Z,102936.02
2022-10-17T07:31:12.992Z,102935.46
2022-10-17T07:33:41.983Z,102936.05
2022-10-17T07:36:10.433Z,102933.75
2022-10-17T07:38:39.449Z,102933.09
2022-10-17T07:41:09.902Z,102933.66
2022-10-17T07:43:39.041Z,102933.95
2022-10-17T07:46:08.550Z,102933.10
2022-10-17T07:48:36.858Z,102929.80
2022-10-17T07:51:07.153Z,102925.98
2022-10-17T07:53:39.176Z,102927.59
2022-10-17T07:56:08.624Z,102931.91
2022-10-17T07:58:37.856Z,102923.77
2022-10-17T08:01:15.745Z,102930.49
2022-10-17T08:03:45.583Z,102933.49
2022-10-17T08:06:14.329Z,102933.56
2022-10-17T08:08:42.679Z,102934.45
2022-10-17T08:11:13.312Z,102932.05
2022-10-17T08:13:42.359Z,102931.72
2022-10-17T08:16:12.436Z,102931.29
2022-10-17T08:18:42.099Z,102931.45
2022-10-17T08:21:11.458Z,102928.64
2022-10-17T08:23:39.750Z,102926.61
2022-10-17T08:26:10.963Z,102927.51
2022-10-17T08:28:40.710Z,102930.11
2022-10-17T08:31:20.228Z,102928.98
2022-10-17T08:33:49.797Z,102925.80
2022-10-17T08:36:19.664Z,102924.13
2022-10-17T08:38:52.566Z,102918.13
2022-10-17T08:41:42.689Z,102923.02
2022-10-17T08:44:34.013Z,102921.14
2022-10-17T08:47:05.255Z,102913.50
2022-10-17T08:49:51.724Z,102914.88
2022-10-17T08:52:48.151Z,102915.35
2022-10-17T08:55:41.356Z,102912.02
2022-10-17T08:58:15.132Z,102908.82
2022-10-17T09:00:57.470Z,102907.77
2022-10-17T09:04:13.053Z,102908.30
2022-10-17T09:07:10.063Z,102907.82
2022-10-17T09:09:56.381Z,102910.86
2022-10-17T09:12:59.574Z,102909.20
2022-10-17T09:15:44.945Z,102915.46
2022-10-17T09:18:21.123Z,102915.16
2022-10-17T09:20:53.941Z,102916.86
2022-10-17T09:23:25.596Z,102912.16
2022-10-17T09:25:56.584Z,102912.33
2022-10-17T09:28:42.658Z,102911.42
2022-10-17T09:31:37.010Z,102912.42
2022-10-17T09:34:05.255Z,102911.88
2022-10-17T09:36:38.530Z,102912.64
2022-10-17T09:39:12.902Z,102906.27
2022-10-17T09:41:46.892Z,102902.89
2022-10-17T09:44:22.614Z,102901.72
2022-10-17T09:47:02.914Z,102898.69
2022-10-17T09:49:37.045Z,102899.42
2022-10-17T09:52:09.901Z,102897.25
2022-10-17T09:55:15.712Z,102894.01
2022-10-17T09:58:02.134Z,102886.23
2022-10-17T10:00:36.872Z,102885.45
2022-10-17T10:03:17.545Z,102877.83
2022-10-17T10:06:04.225Z,102879.95
2022-10-17T10:08:37.997Z,102878.39
2022-10-17T10:11:13.455Z,102879.29
2022-10-17T10:13:43.092Z,102879.39
2022-10-17T10:16:24.606Z,102881.71
2022-10-17T10:18:53.089Z,102888.60
2022-10-17T10:21:27.081Z,102887.55
2022-10-17T10:24:30.884Z,102883.56
2022-10-17T10:27:02.685Z,102876.41
2022-10-17T10:29:34.391Z,102873.63
2022-10-17T10:32:27.016Z,102870.31
2022-10-17T10:35:06.522Z,102869.13
2022-10-17T10:37:43.736Z,102865.60
2022-10-17T10:40:38.143Z,102861.49
2022-10-17T10:43:06.811Z,102858.44
2022-10-17T10:45:53.375Z,102856.69
2022-10-17T10:48:24.500Z,102860.02
2022-10-17T10:51:13.267Z,102856.85
2022-10-17T10:53:53.609Z,102857.71
2022-10-17T10:56:27.375Z,102858.77
2022-10-17T10:58:57.383Z,102857.80
2022-10-17T11:01:31.910Z,102857.20
2022-10-17T11:04:35.616Z,102856.77
2022-10-17T11:07:10.563Z,102852.04
2022-10-17T11:09:50.888Z,102855.16
2022-10-17T11:12:24.699Z,102853.85
2022-10-17T11:15:07.717Z,102851.76
2022-10-17T11:17:57.219Z,102850.47
2022-10-17T11:20:51.905Z,102842.25
2022-10-17T11:23:25.180Z,102841.17
2022-10-17T11:25:54.370Z,102841.73
2022-10-17T11:28:24.168Z,102834.71
2022-10-17T11:30:55.620Z,102833.58
2022-10-17T11:33:42.329Z,102828.57
2022-10-17T11:36:11.257Z,102825.73
2022-10-17T11:38:57.343Z,102821.11
2022-10-17T11:41:40.111Z,102826.18
2022-10-17T11:44:41.101Z,102826.09
2022-10-17T11:47:21.359Z,102826.61
2022-10-17T11:51:59.919Z,102823.06
2022-10-17T11:52:56.797Z,102821.95
2022-10-17T11:55:28.030Z,102824.27
2022-10-17T11:58:25.077Z,102821.41
2022-10-17T12:01:15.482Z,102818.52
2022-10-17T12:04:26.716Z,102816.27
2022-10-17T12:07:28.772Z,102816.77
2022-10-17T12:10:16.438Z,102816.31
2022-10-17T12:12:44.601Z,102813.38
2022-10-17T12:15:24.785Z,102813.27
2022-10-17T12:17:55.943Z,102812.30
2022-10-17T12:20:26.163Z,102814.10
2022-10-17T12:22:58.885Z,102814.35
2022-10-17T12:25:33.906Z,102815.61
2022-10-17T12:28:19.122Z,102811.58
2022-10-17T12:30:52.089Z,102811.82
2022-10-17T12:33:30.658Z,102812.71
2022-10-17T12:36:17.449Z,102816.48
2022-10-17T12:38:50.496Z,102817.97
2022-10-17T12:41:40.534Z,102819.20
2022-10-17T12:44:15.139Z,102818.62
2022-10-17T12:46:51.435Z,102822.85
2022-10-17T12:49:49.162Z,102820.42
2022-10-17T12:52:35.231Z,102820.64
2022-10-17T12:55:12.698Z,102821.56
2022-10-17T12:58:03.060Z,102819.60
2022-10-17T13:00:49.804Z,102815.57
2022-10-17T13:03:44.143Z,102814.27
2022-10-17T13:06:21.170Z,102818.75
2022-10-17T13:08:57.732Z,102816.17
2022-10-17T13:11:30.510Z,102815.75
2022-10-17T13:14:00.779Z,102816.08
2022-10-17T13:16:35.172Z,102815.34
2022-10-17T13:19:16.537Z,102813.44
2022-10-17T13:22:02.272Z,102812.32
2022-10-17T13:24:40.504Z,102812.59
2022-10-17T13:27:23.174Z,102817.39
2022-10-17T13:29:51.766Z,102816.15
2022-10-17T13:32:20.112Z,102815.75
2022-10-17T13:35:08.813Z,102817.77
2022-10-17T13:37:37.711Z,102818.86
2022-10-17T13:40:24.796Z,102816.66
2022-10-17T13:42:56.853Z,102820.07
2022-10-17T13:45:32.836Z,102821.98
2022-10-17T13:48:04.629Z,102822.64
2022-10-17T13:50:44.549Z,102822.69
2022-10-17T13:53:13.366Z,102826.09
2022-10-17T13:56:26.403Z,102826.09
2022-10-17T13:59:01.841Z,102824.52
2022-10-17T14:01:30.813Z,102824.95
2022-10-17T14:04:20.130Z,102825.45
2022-10-17T14:06:51.195Z,102824.59
2022-10-17T14:09:27.496Z,102823.89
2022-10-17T14:12:12.825Z,102822.16
2022-10-17T14:15:08.860Z,102820.31
2022-10-17T14:17:31.097Z,102821.70
2022-10-17T14:23:21.018Z,102818.79
2022-10-17T14:25:41.659Z,102813.34
2022-10-17T14:28:14.212Z,102811.00
2022-10-17T14:30:56.254Z,102809.72
2022-10-17T14:33:30.617Z,102809.05
2022-10-17T14:36:00.764Z,102810.67
2022-10-17T14:38:29.361Z,102810.07
2022-10-17T14:41:41.471Z,102808.92
2022-10-17T14:44:19.608Z,102807.90
2022-10-17T14:46:53.165Z,102810.10
2022-10-17T14:49:41.221Z,102813.65
2022-10-17T14:52:24.989Z,102814.53
2022-10-17T14:54:53.482Z,102811.94
2022-10-17T14:57:27.066Z,102810.69
2022-10-17T14:59:56.545Z,102812.67
2022-10-17T15:02:26.643Z,102810.11
2022-10-17T15:04:55.328Z,102810.93
2022-10-17T15:07:24.202Z,102807.30
2022-10-17T15:09:54.276Z,102803.91
2022-10-17T15:12:25.231Z,102809.08
2022-10-17T15:14:54.275Z,102812.81
2022-10-17T15:17:27.852Z,102819.44
2022-10-17T15:19:56.886Z,102823.02
2022-10-17T15:22:25.653Z,102822.00
2022-10-17T15:24:53.884Z,102820.65
2022-10-17T15:27:25.055Z,102824.37
2022-10-17T15:29:53.379Z,102827.94
2022-10-17T15:32:21.584Z,102831.62
2022-10-17T15:34:49.740Z,102830.23
2022-10-17T15:37:23.678Z,102830.98
2022-10-17T15:39:54.626Z,102831.48
2022-10-17T15:42:27.671Z,102830.17
2022-10-17T15:44:56.786Z,102832.04
2022-10-17T15:47:35.275Z,102831.88
2022-10-17T15:50:04.301Z,102834.10
2022-10-17T15:52:32.528Z,102835.97
2022-10-17T15:55:04.231Z,102837.70
2022-10-17T15:57:36.830Z,102837.65
2022-10-17T16:00:07.621Z,102838.95
2022-10-17T16:02:35.872Z,102842.83
2022-10-17T16:05:13.593Z,102846.88
2022-10-17T16:07:43.078Z,102847.77
2022-10-17T16:10:11.245Z,102852.38
2022-10-17T16:12:41.439Z,102857.48
2022-10-17T16:15:24.002Z,102859.89
2022-10-17T16:17:53.630Z,102864.13
2022-10-17T16:20:22.173Z,102862.60
2022-10-17T16:22:50.739Z,102865.64
2022-10-17T16:25:24.981Z,102868.67
2022-10-17T16:27:55.394Z,102873.88
2022-10-17T16:30:25.298Z,102876.28
2022-10-17T16:32:54.955Z,102871.31
2022-10-17T16:35:33.073Z,102872.67
2022-10-17T16:38:06.669Z,102879.71
2022-10-17T16:40:35.279Z,102868.31
2022-10-17T16:43:03.506Z,102880.27
2022-10-17T16:45:31.727Z,102882.36
2022-10-17T16:48:00.431Z,102880.60
2022-10-17T16:50:31.412Z,102880.27
2022-10-17T16:53:00.737Z,102876.48
2022-10-17T16:55:29.814Z,102876.59
2022-10-17T16:58:00.125Z,102876.48
2022-10-17T17:00:28.559Z,102875.08
2022-10-17T17:02:56.809Z,102877.58
2022-10-17T17:05:25.123Z,102878.02
2022-10-17T17:07:53.448Z,102876.96
2022-10-17T17:10:21.566Z,102877.39
2022-10-17T17:12:49.898Z,102881.09
2022-10-17T17:15:18.322Z,102882.23
2022-10-17T17:17:53.315Z,102880.27
2022-10-17T17:20:23.614Z,102879.70
2022-10-17T17:22:52.563Z,102879.72
2022-10-17T17:25:22.234Z,102879.52
2022-10-17T17:27:50.832Z,102875.20
2022-10-17T17:30:18.995Z,102866.69
2022-10-17T17:32:47.311Z,102872.60
2022-10-17T17:35:15.486Z,102871.22
2022-10-17T17:37:43.634Z,102874.66
2022-10-17T17:40:12.179Z,102874.11
2022-10-17T17:42:40.501Z,102876.00
2022-10-17T17:45:09.536Z,102875.41
2022-10-17T17:47:37.797Z,102877.76
2022-10-17T17:50:06.435Z,102881.53
2022-10-17T17:52:34.769Z,102882.66
2022-10-17T17:55:03.062Z,102884.04
2022-10-17T17:57:31.289Z,102882.80
2022-10-17T17:59:59.596Z,102884.48
2022-10-17T18:02:27.963Z,102882.21
2022-10-17T18:04:56.303Z,102880.70
2022-10-17T18:07:25.214Z,102886.41
2022-10-17T18:09:53.874Z,102883.29
2022-10-17T18:12:22.194Z,102880.83
2022-10-17T18:14:50.427Z,102880.30
2022-10-17T18:17:18.625Z,102883.98
2022-10-17T18:19:46.918Z,102884.44
2022-10-17T18:22:15.253Z,102883.08
2022-10-17T18:24:43.453Z,102881.90
2022-10-17T18:27:16.108Z,102883.55
2022-10-17T18:29:47.587Z,102893.46
2022-10-17T18:32:16.241Z,102908.40
2022-10-17T18:34:44.454Z,102910.30
2022-10-17T18:37:12.604Z,102911.16
2022-10-17T18:39:40.900Z,102912.86
2022-10-17T18:42:09.195Z,102915.57
2022-10-17T18:44:37.363Z,102916.34
2022-10-17T18:47:05.762Z,102916.50
2022-10-17T18:49:34.470Z,102921.93
2022-10-17T18:52:02.713Z,102920.70
2022-10-17T18:54:33.528Z,102925.02
2022-10-17T18:57:01.848Z,102925.95
2022-10-17T18:59:30.074Z,102923.60
2022-10-17T19:01:58.394Z,102923.02
2022-10-17T19:04:26.756Z,102922.98
2022-10-17T19:06:54.856Z,102923.89
2022-10-17T19:09:23.180Z,102919.95
2022-10-17T19:11:51.451Z,102921.63
2022-10-17T19:14:19.706Z,102924.27
2022-10-17T19:16:49.703Z,102925.35
2022-10-17T19:19:24.436Z,102929.05
2022-10-17T19:21:53.136Z,102928.83
2022-10-17T19:24:27.088Z,102932.42
2022-10-17T19:26:57.491Z,102932.41
2022-10-17T19:29:28.032Z,102934.00
2022-10-17T19:34:29.508Z,102939.63
2022-10-17T19:36:57.721Z,102937.49
2022-10-17T19:39:26.725Z,102937.27
2022-10-17T19:41:54.971Z,102940.95
2022-10-17T19:44:23.292Z,102943.21
2022-10-17T19:46:51.538Z,102941.59
2022-10-17T19:49:19.834Z,102942.45
2022-10-17T19:51:48.357Z,102946.05
2022-10-17T19:54:18.898Z,102946.95
2022-10-17T19:56:47.481Z,102945.65
2022-10-17T19:59:16.970Z,102949.31
2022-10-17T20:01:45.778Z,102948.39
2022-10-17T20:04:14.254Z,102950.11
2022-10-17T20:06:42.601Z,102952.36
2022-10-17T20:09:15.684Z,102950.84
2022-10-17T20:11:45.867Z,102949.86
2022-10-17T20:14:14.141Z,102951.33
2022-10-17T20:16:44.962Z,102952.27
2022-10-17T20:19:13.848Z,102950.58
2022-10-17T20:21:42.673Z,102951.67
2022-10-17T20:24:14.481Z,102952.10
2022-10-17T20:26:43.482Z,102952.41
2022-10-17T20:29:18.029Z,102952.30
2022-10-17T20:31:47.242Z,102951.88
2022-10-17T20:34:17.180Z,102953.25
2022-10-17T20:36:45.986Z,102956.31
2022-10-17T20:39:14.644Z,102952.91
2022-10-17T20:41:43.722Z,102956.39
2022-10-17T20:44:12.799Z,102956.81
2022-10-17T20:46:48.747Z,102958.92
2022-10-17T20:49:25.959Z,102953.25
2022-10-17T20:51:54.172Z,102953.23
2022-10-17T20:54:22.589Z,102956.11
2022-10-17T20:56:50.917Z,102959.13
2022-10-17T20:59:19.512Z,102961.83
2022-10-17T21:01:48.040Z,102963.75
2022-10-17T21:04:40.346Z,102961.61
2022-10-17T21:07:04.500Z,102960.27
2022-10-17T21:09:33.463Z,102959.50
2022-10-17T21:12:02.676Z,102954.45
2022-10-17T21:14:30.911Z,102952.27
2022-10-17T21:17:03.859Z,102953.98
2022-10-17T21:19:32.894Z,102954.39
2022-10-17T21:22:01.241Z,102954.56
2022-10-17T21:24:29.637Z,102954.92
2022-10-17T21:26:58.056Z,102952.83
2022-10-17T21:29:26.282Z,102949.85
2022-10-17T21:31:54.421Z,102946.17
2022-10-17T21:34:26.430Z,102945.59
2022-10-17T21:36:54.793Z,102942.10
2022-10-17T21:39:25.019Z,102940.30
2022-10-17T21:41:53.965Z,102936.96
2022-10-17T21:44:25.190Z,102937.13
2022-10-17T21:46:54.702Z,102937.04
2022-10-17T21:49:24.499Z,102936.64
2022-10-17T21:51:53.432Z,102937.38
2022-10-17T21:54:23.199Z,102936.73
2022-10-17T21:56:52.321Z,102937.15
2022-10-17T21:59:20.529Z,102938.24
2022-10-17T22:01:48.793Z,102938.17
2022-10-17T22:04:18.899Z,102939.73
2022-10-17T22:06:48.624Z,102938.41
2022-10-17T22:09:23.536Z,102935.20
2022-10-17T22:11:54.088Z,102936.26
2022-10-17T22:14:24.278Z,102938.76
2022-10-17T22:16:52.884Z,102941.86
2022-10-17T22:19:25.856Z,102945.67
2022-10-17T22:21:54.598Z,102945.63
2022-10-17T22:24:23.495Z,102948.39
2022-10-17T22:26:52.078Z,102948.00
2022-10-17T22:29:20.746Z,102948.25
2022-10-17T22:31:49.158Z,102950.38
2022-10-17T22:34:18.610Z,102952.15
2022-10-17T22:36:48.042Z,102951.95
2022-10-17T22:39:16.329Z,102952.84
2022-10-17T22:41:44.533Z,102952.04
2022-10-17T22:44:12.832Z,102950.77
2022-10-17T22:46:41.108Z,102952.45
2022-10-17T22:49:09.369Z,102947.20
2022-10-17T22:51:37.481Z,102943.18
2022-10-17T22:54:05.606Z,102940.89
2022-10-17T22:56:33.822Z,102941.33
2022-10-17T22:59:02.000Z,102939.71
2022-10-17T23:01:30.235Z,102935.67
2022-10-17T23:03:58.687Z,102935.98
2022-10-17T23:06:26.939Z,102937.74
2022-10-17T23:08:55.610Z,102935.60
2022-10-17T23:11:23.830Z,102938.92
2022-10-17T23:13:51.959Z,102938.16
2022-10-17T23:16:20.164Z,102936.20
2022-10-17T23:18:48.615Z,102933.29
2022-10-17T23:21:16.771Z,102934.55
2022-10-17T23:23:45.003Z,102930.89
2022-10-17T23:26:14.164Z,102929.29
2022-10-17T23:28:43.082Z,102927.41
2022-10-17T23:31:19.209Z,102926.15
2022-10-17T23:33:48.665Z,102926.20
2022-10-17T23:36:18.713Z,102925.19
2022-10-17T23:38:47.733Z,102922.31
2022-10-17T23:41:16.589Z,102920.13
2022-10-17T23:43:45.212Z,102919.40
2022-10-17T23:46:13.526Z,102916.79
2022-10-17T23:48:42.014Z,102910.65
2022-10-17T23:51:10.959Z,102908.90
2022-10-17T23:53:40.171Z,102907.36
2022-10-17T23:56:09.042Z,102905.73
2022-10-17T23:58:37.597Z,102907.83
